Hobbs, New Mexico
Current Conditions -  °F | °C
As of 11:50 AM on Friday 31 Oct 2014 (Local Time) from KHOB Reporting Station
Clear Clear  
Wind Chill: 63°   Ceiling: Unl
Heat Index: 63°   Visibility: 10mi
Dew Point: 32°   Wind: 10mph
Humidity: 32%   Direction: 100°E
Pressure: 30.44"   Gusts: 18mph
Location:  32.7°N, 103.12°W
Report Text: KHOB 311750Z 10009G16KT 10SM SKC 17/00 A3044
Loading
Personal Weather Stations






























Interactive Weather Map
Tropical Storm Tracking
New forecast layout! Learn more

10-Day Weather Forecast

Advertisements
Track Severe Weather on mobile